Time;durP1;ratioP1;P1;durP2;ratioP2;P2;SDS_P1;SDS_P2;PMS_P1;PMS_P2;Temp;Humidity;BMP_temperature;BMP_pressure;BME280_temperature;BME280_humidity;BME280_pressure;Samples;Min_cycle;Max_cycle;Signal;HPM_P1;HPM_P2
2021/12/30 00:01:50;;;;;;;1.95;0.68;;;13.10;99.90;;;12.69;79.41;97435.56;5008676;28;20054;-45
2021/12/30 00:04:18;;;;;;;1.77;0.68;;;13.10;99.90;;;12.67;79.48;97422.38;5007162;28;20058;-48
2021/12/30 00:06:46;;;;;;;2.15;0.90;;;13.10;99.90;;;12.69;79.20;97427.56;5007966;28;20057;-45
2021/12/30 00:09:14;;;;;;;1.33;0.80;;;13.10;99.90;;;12.67;79.16;97424.25;5009482;28;20066;-46
2021/12/30 00:11:43;;;;;;;2.67;1.08;;;13.10;99.90;;;12.70;78.62;97447.94;5000731;28;20045;-47
2021/12/30 00:14:31;;;;;;;1.75;0.90;;;13.10;99.90;;;12.69;78.89;97438.25;4988678;28;20058;-45
2021/12/30 00:16:59;;;;;;;1.85;0.70;;;13.10;99.90;;;12.64;78.70;97453.97;4988150;28;20218;-45
2021/12/30 00:19:27;;;;;;;1.40;1.00;;;13.10;99.90;;;12.60;78.75;97462.34;4989584;28;20047;-45
2021/12/30 00:21:55;;;;;;;1.88;0.82;;;13.00;99.90;;;12.63;78.55;97463.00;4989798;28;20050;-46
2021/12/30 00:24:23;;;;;;;2.10;1.15;;;13.00;99.90;;;12.60;78.65;97462.34;4988462;28;20042;-48
2021/12/30 00:26:53;;;;;;;1.38;0.85;;;13.00;99.90;;;12.59;78.69;97482.03;4988854;28;20045;-46
2021/12/30 00:29:21;;;;;;;1.98;0.73;;;13.00;99.90;;;12.51;78.43;97478.59;4989283;28;20034;-46
2021/12/30 00:31:49;;;;;;;1.77;1.10;;;13.00;99.90;;;12.59;78.51;97492.72;4987771;28;20072;-46
2021/12/30 00:34:17;;;;;;;2.05;1.00;;;13.00;99.90;;;12.58;78.16;97499.09;4988553;28;20056;-50
2021/12/30 00:36:45;;;;;;;2.45;1.02;;;13.00;99.90;;;12.60;78.46;97497.06;4988930;28;20050;-46
2021/12/30 00:39:13;;;;;;;2.33;1.10;;;13.00;99.90;;;12.61;78.47;97498.72;4989164;28;20043;-47
2021/12/30 00:41:41;;;;;;;3.15;0.95;;;13.00;99.90;;;12.57;78.23;97499.25;4989632;28;20374;-46
2021/12/30 00:44:09;;;;;;;1.38;0.73;;;13.00;99.90;;;12.48;78.56;97497.63;4989378;28;20061;-47
2021/12/30 00:46:37;;;;;;;1.42;0.80;;;12.90;99.90;;;12.55;78.13;97499.44;4988741;28;20052;-47
2021/12/30 00:49:05;;;;;;;2.75;1.10;;;13.00;99.90;;;12.47;78.25;97496.81;4988791;28;20081;-46
2021/12/30 00:51:32;;;;;;;1.10;0.80;;;12.90;99.90;;;12.51;78.09;97500.78;4986972;28;20371;-49
2021/12/30 00:54:00;;;;;;;2.97;0.80;;;12.90;99.90;;;12.54;78.18;97532.50;4989293;28;20062;-47
2021/12/30 00:56:28;;;;;;;1.05;0.80;;;12.90;99.90;;;12.51;78.09;97516.81;4988438;28;20076;-46
2021/12/30 00:58:56;;;;;;;1.50;0.90;;;12.90;99.90;;;12.47;77.93;97520.84;4989677;28;20407;-49
2021/12/30 01:01:25;;;;;;;0.90;0.60;;;12.80;99.90;;;12.41;77.83;97530.38;4987705;28;20312;-45
2021/12/30 01:03:53;;;;;;;1.98;0.77;;;12.80;99.90;;;12.54;78.00;97523.63;4987765;28;20060;-46
2021/12/30 01:06:21;;;;;;;1.58;0.70;;;12.90;99.90;;;12.47;77.84;97528.03;4987123;28;20057;-48
2021/12/30 01:08:49;;;;;;;1.58;0.88;;;12.90;99.90;;;12.43;78.04;97535.56;4987434;28;20117;-49
2021/12/30 01:11:18;;;;;;;0.90;0.80;;;12.90;99.90;;;12.49;77.71;97542.03;4987675;28;20054;-48
2021/12/30 01:13:51;;;;;;;1.00;0.68;;;12.90;99.90;;;12.48;78.01;97535.84;4987378;28;20368;-46
2021/12/30 01:16:22;;;;;;;1.30;1.00;;;12.90;99.90;;;12.47;78.06;97547.56;4987798;28;20058;-46
2021/12/30 01:19:15;;;;;;;1.45;0.70;;;12.80;99.90;;;12.41;78.29;97550.94;4987517;28;20038;-47
2021/12/30 01:21:43;;;;;;;2.13;1.02;;;12.80;99.90;;;12.47;78.37;97546.72;4988116;28;20069;-46
2021/12/30 01:24:11;;;;;;;0.60;0.60;;;12.90;99.90;;;12.39;78.00;97556.44;4987911;28;20056;-46
2021/12/30 01:26:39;;;;;;;0.65;0.65;;;12.80;99.90;;;12.39;78.16;97566.28;4988260;28;20077;-48
2021/12/30 01:29:07;;;;;;;0.73;0.70;;;12.90;99.90;;;12.46;77.98;97556.56;4988751;28;20060;-48
2021/12/30 01:31:35;;;;;;;1.38;0.90;;;12.90;99.90;;;12.52;77.84;97569.22;4988062;28;20061;-48
2021/12/30 01:34:20;;;;;;;2.33;0.88;;;12.90;99.90;;;12.49;77.86;97566.06;4987904;28;20372;-45
2021/12/30 01:36:49;;;;;;;1.88;1.55;;;12.90;99.90;;;12.44;77.43;97576.44;4985899;28;20054;-45
2021/12/30 01:39:18;;;;;;;4.07;1.17;;;12.90;99.90;;;12.53;77.64;97554.84;4988948;28;20049;-47
2021/12/30 01:41:48;;;;;;;2.13;0.90;;;12.90;99.90;;;12.53;77.66;97562.03;4986384;28;20064;-48
2021/12/30 01:44:21;;;;;;;3.85;1.00;;;12.90;99.90;;;12.49;77.61;97568.75;4988353;28;20050;-48
2021/12/30 01:46:50;;;;;;;2.83;1.05;;;12.90;99.90;;;12.49;77.38;97574.91;4986845;28;20061;-46
2021/12/30 01:49:21;;;;;;;1.10;0.93;;;12.90;99.90;;;12.51;77.03;97572.88;4987034;28;20050;-47
2021/12/30 01:51:53;;;;;;;2.67;1.00;;;12.80;99.90;;;12.50;77.14;97576.56;4988602;28;20062;-46
2021/12/30 01:54:23;;;;;;;1.48;0.82;;;12.80;99.90;;;12.47;77.14;97579.59;4987790;28;20058;-50
2021/12/30 01:56:51;;;;;;;2.22;1.50;;;12.80;99.90;;;12.46;76.81;97583.25;4987733;28;20060;-48
2021/12/30 01:59:22;;;;;;;3.63;1.00;;;12.80;99.90;;;12.52;76.95;97597.75;4986626;28;20111;-48
2021/12/30 02:01:56;;;;;;;2.30;0.80;;;12.80;99.90;;;12.53;76.66;97604.75;4988154;28;20065;-47
2021/12/30 02:04:30;;;;;;;1.25;0.80;;;12.80;99.90;;;12.47;76.84;97618.81;4986594;28;20046;-47
2021/12/30 02:06:59;;;;;;;1.77;1.35;;;12.80;99.90;;;12.54;76.91;97622.44;4988067;28;20058;-47
2021/12/30 02:09:30;;;;;;;3.55;1.90;;;12.80;99.90;;;12.55;76.73;97624.94;4986836;28;20349;-45
2021/12/30 02:11:58;;;;;;;2.55;1.10;;;12.90;99.90;;;12.60;76.59;97627.94;4987255;28;20054;-46
2021/12/30 02:14:26;;;;;;;1.48;0.98;;;12.90;99.90;;;12.69;76.42;97638.56;4987589;28;20042;-49
2021/12/30 02:16:54;;;;;;;1.25;0.73;;;12.90;99.90;;;12.65;76.63;97631.91;4987338;28;20225;-47
2021/12/30 02:19:22;;;;;;;2.15;1.80;;;12.90;99.90;;;12.67;76.10;97637.91;4987684;28;20050;-46
2021/12/30 02:21:50;;;;;;;1.30;0.80;;;12.90;99.90;;;12.68;76.27;97640.41;5001746;28;20050;-47
2021/12/30 02:24:18;;;;;;;1.50;0.80;;;12.90;99.90;;;12.68;76.59;97634.22;4986311;28;20065;-47
2021/12/30 02:26:46;;;;;;;2.65;1.10;;;13.00;99.90;;;12.71;76.26;97633.88;4986217;28;20062;-47
2021/12/30 02:29:14;;;;;;;2.42;0.95;;;13.00;99.90;;;12.69;76.22;97642.06;4987602;28;20050;-50
2021/12/30 02:31:42;;;;;;;2.15;0.68;;;13.00;99.90;;;12.70;76.35;97635.72;4986439;28;20046;-48
2021/12/30 02:34:10;;;;;;;4.85;1.05;;;13.00;99.90;;;12.70;76.38;97642.91;4989973;28;20060;-46
2021/12/30 02:36:38;;;;;;;5.15;1.30;;;13.00;99.90;;;12.78;76.51;97640.19;4990171;28;20060;-47
2021/12/30 02:39:10;;;;;;;1.60;0.90;;;13.00;99.90;;;12.74;76.58;97641.56;4991404;28;20084;-48
2021/12/30 02:41:38;;;;;;;1.67;0.95;;;13.10;99.90;;;12.71;76.63;97642.72;4990143;28;20042;-45
2021/12/30 02:44:09;;;;;;;1.60;0.98;;;13.10;99.90;;;12.73;76.94;97646.03;5022134;28;20058;-47
2021/12/30 02:46:39;;;;;;;1.17;0.98;;;13.00;99.90;;;12.77;76.85;97641.19;4990341;28;20352;-46
2021/12/30 02:49:07;;;;;;;2.35;0.93;;;13.10;99.90;;;12.74;77.18;97644.22;4990917;28;20054;-49
2021/12/30 02:51:36;;;;;;;6.53;1.23;;;13.10;99.90;;;12.80;76.73;97638.19;4990282;28;20054;-51
2021/12/30 02:54:04;;;;;;;4.80;1.33;;;13.10;99.90;;;12.81;76.66;97647.84;4990723;28;20050;-50
2021/12/30 02:56:32;;;;;;;2.85;1.30;;;13.10;99.90;;;12.86;76.57;97650.81;4990032;28;20081;-49
2021/12/30 02:59:00;;;;;;;1.48;1.10;;;13.10;99.90;;;12.85;76.62;97653.66;4989292;28;20054;-46
2021/12/30 03:01:31;;;;;;;2.92;1.30;;;13.10;99.90;;;12.92;76.67;97658.13;4990201;28;20054;-48
2021/12/30 03:04:05;;;;;;;1.40;1.02;;;13.20;99.90;;;12.96;76.40;97672.81;4990911;28;20634;-48
2021/12/30 03:06:34;;;;;;;1.83;1.15;;;13.20;99.90;;;12.91;76.83;97663.66;4989285;28;20249;-47
2021/12/30 03:09:03;;;;;;;1.33;0.73;;;13.20;99.90;;;12.95;76.62;97659.63;4990400;28;20056;-49
2021/12/30 03:11:31;;;;;;;2.28;1.25;;;13.20;99.90;;;12.94;76.56;97666.81;4990476;28;20062;-47
2021/12/30 03:14:01;;;;;;;1.23;0.75;;;13.20;99.90;;;12.90;76.68;97670.84;4989821;28;20270;-48
2021/12/30 03:16:35;;;;;;;1.42;1.02;;;13.20;99.90;;;12.92;76.58;97665.31;4990299;28;20058;-46
2021/12/30 03:19:05;;;;;;;1.42;1.08;;;13.20;99.90;;;12.96;76.42;97680.81;4989925;28;20050;-51
2021/12/30 03:21:33;;;;;;;4.05;3.15;;;13.30;99.90;;;13.00;76.53;97671.44;4989271;28;20197;-48
2021/12/30 03:24:03;;;;;;;3.17;1.50;;;13.30;99.90;;;13.07;76.42;97676.09;4989215;28;20058;-47
2021/12/30 03:26:31;;;;;;;1.08;0.90;;;13.30;99.90;;;13.08;76.19;97667.06;4990011;28;20042;-52
2021/12/30 03:29:00;;;;;;;1.25;0.90;;;13.40;99.90;;;13.10;76.26;97671.22;4988623;28;20341;-46
2021/12/30 03:31:28;;;;;;;1.40;0.73;;;13.40;99.90;;;13.06;76.40;97682.44;4990569;28;20463;-51
2021/12/30 03:33:56;;;;;;;1.40;1.08;;;13.30;99.90;;;13.07;76.24;97679.59;4990225;28;20054;-49
2021/12/30 03:36:25;;;;;;;2.55;1.30;;;13.30;99.90;;;13.07;76.21;97689.47;4990444;28;20072;-47
2021/12/30 03:38:54;;;;;;;1.55;0.93;;;13.30;99.90;;;13.04;76.43;97682.63;4989988;28;20058;-46
2021/12/30 03:41:25;;;;;;;1.20;0.70;;;13.30;99.90;;;13.00;76.52;97692.00;4989596;28;20055;-46
2021/12/30 03:43:54;;;;;;;1.33;0.90;;;13.30;99.90;;;13.04;76.59;97692.47;4988369;28;20352;-46
2021/12/30 03:46:23;;;;;;;1.15;0.90;;;13.30;99.90;;;12.98;76.67;97694.84;4988281;28;20057;-49
2021/12/30 03:48:51;;;;;;;2.05;1.00;;;13.30;99.90;;;13.07;76.82;97692.97;4989242;28;20046;-48
2021/12/30 03:51:24;;;;;;;1.73;1.55;;;13.30;99.90;;;13.10;76.49;97703.28;4990766;28;20050;-50
2021/12/30 03:53:57;;;;;;;1.03;0.73;;;13.40;99.90;;;13.11;76.50;97698.81;4990007;28;20669;-48
2021/12/30 03:56:31;;;;;;;1.83;1.00;;;13.40;99.90;;;13.19;76.43;97696.06;4988736;28;20058;-47
2021/12/30 03:58:59;;;;;;;1.38;0.65;;;13.40;99.90;;;13.19;76.46;97710.25;4988519;28;20355;-47
2021/12/30 04:01:27;;;;;;;1.40;0.70;;;13.40;99.90;;;13.24;76.40;97711.56;4989086;28;20049;-47
2021/12/30 04:03:57;;;;;;;2.55;1.15;;;13.50;99.90;;;13.25;76.33;97713.25;4987783;28;20363;-47
2021/12/30 04:06:27;;;;;;;3.28;1.70;;;13.50;99.90;;;13.28;76.38;97712.88;4988771;28;20353;-48
2021/12/30 04:08:57;;;;;;;2.53;1.50;;;13.50;99.90;;;13.26;76.45;97721.09;4989638;28;20251;-49
2021/12/30 04:11:30;;;;;;;1.92;0.98;;;13.50;99.90;;;13.26;76.59;97720.25;4988530;28;20056;-49
2021/12/30 04:13:58;;;;;;;1.00;0.55;;;13.50;99.90;;;13.27;76.55;97725.41;4989619;28;20054;-48
2021/12/30 04:16:26;;;;;;;1.27;0.70;;;13.50;99.90;;;13.25;76.85;97731.97;4987930;28;20092;-48
2021/12/30 04:18:54;;;;;;;0.82;0.68;;;13.50;99.90;;;13.24;76.66;97728.47;4989162;28;20349;-51
2021/12/30 04:21:24;;;;;;;0.88;0.60;;;13.40;99.90;;;13.23;77.00;97726.78;4989351;28;20054;-48
2021/12/30 04:23:52;;;;;;;0.70;0.70;;;13.50;99.90;;;13.24;76.98;97723.13;4988482;28;20080;-48
2021/12/30 04:26:20;;;;;;;0.93;0.88;;;13.40;99.90;;;13.27;77.00;97724.59;4988870;28;20340;-46
2021/12/30 04:28:48;;;;;;;1.40;1.05;;;13.40;99.90;;;13.29;76.97;97719.91;4987762;28;20060;-47
2021/12/30 04:31:17;;;;;;;1.88;0.68;;;13.40;99.90;;;13.30;77.04;97726.94;4989115;28;20046;-49
2021/12/30 04:33:45;;;;;;;0.65;0.60;;;13.40;99.90;;;13.29;77.09;97725.25;4988631;28;20046;-47
2021/12/30 04:36:13;;;;;;;0.80;0.80;;;13.50;99.90;;;13.28;77.08;97736.94;4989405;28;20065;-49
2021/12/30 04:38:41;;;;;;;0.65;0.40;;;13.50;99.90;;;13.27;77.20;97729.94;4987938;28;20046;-47
2021/12/30 04:41:09;;;;;;;0.63;0.50;;;13.40;99.90;;;13.25;77.25;97737.31;4989934;28;20034;-48
2021/12/30 04:43:37;;;;;;;1.52;0.47;;;13.40;99.90;;;13.20;77.35;97733.31;4989481;28;20050;-48
2021/12/30 04:46:05;;;;;;;1.90;0.70;;;13.40;99.90;;;13.20;77.61;97740.50;4988077;28;20282;-46
2021/12/30 04:48:33;;;;;;;0.38;0.38;;;13.30;99.90;;;13.18;77.51;97746.03;4988376;28;20049;-49
2021/12/30 04:51:01;;;;;;;0.50;0.50;;;13.30;99.90;;;13.17;77.44;97748.88;4988099;28;20064;-51
2021/12/30 04:53:29;;;;;;;1.70;0.60;;;13.30;99.90;;;13.16;77.44;97745.38;4987713;28;20054;-46
2021/12/30 04:55:57;;;;;;;0.40;0.40;;;13.30;99.90;;;13.15;77.46;97746.38;4987391;28;20058;-47
2021/12/30 04:58:25;;;;;;;1.15;0.70;;;13.30;99.90;;;13.14;77.58;97752.75;4988320;28;20058;-49
2021/12/30 05:00:53;;;;;;;1.15;0.60;;;13.30;99.90;;;13.15;77.53;97758.91;4990224;28;20277;-46
2021/12/30 05:03:26;;;;;;;2.35;0.90;;;13.30;99.90;;;13.14;77.94;97766.09;4988702;28;20333;-48
2021/12/30 05:05:55;;;;;;;1.95;0.90;;;13.30;99.90;;;13.14;77.78;97766.09;4987476;28;20413;-47
2021/12/30 05:08:26;;;;;;;0.82;0.50;;;13.30;99.90;;;13.13;77.61;97761.75;4988634;28;20267;-49
2021/12/30 05:10:53;;;;;;;0.93;0.50;;;13.30;99.90;;;13.15;77.55;97759.75;4987127;28;20058;-48
2021/12/30 05:13:21;;;;;;;0.50;0.50;;;13.30;99.90;;;13.18;77.71;97779.94;4988757;28;20058;-49
2021/12/30 05:15:49;;;;;;;1.83;0.68;;;13.30;99.90;;;13.17;77.57;97767.59;4987866;28;20049;-47
2021/12/30 05:18:19;;;;;;;1.77;1.05;;;13.30;99.90;;;13.16;77.66;97769.44;4986607;28;20050;-48
2021/12/30 05:20:47;;;;;;;2.75;1.60;;;13.30;99.90;;;13.17;77.61;97775.59;4989014;28;20236;-50
2021/12/30 05:23:14;;;;;;;3.70;1.88;;;13.30;99.90;;;13.16;77.60;97769.44;4988392;28;20345;-46
2021/12/30 05:25:42;;;;;;;0.80;0.55;;;13.30;99.90;;;13.17;77.61;97772.94;4986064;28;20034;-47
2021/12/30 05:28:10;;;;;;;1.25;0.77;;;13.30;99.90;;;13.16;77.83;97777.47;4987749;28;20073;-45
2021/12/30 05:30:38;;;;;;;0.60;0.50;;;13.30;99.90;;;13.19;77.50;97786.97;4988065;28;20054;-48
2021/12/30 05:33:05;;;;;;;0.98;0.30;;;13.30;99.90;;;13.14;77.52;97787.50;4987238;28;20054;-46
2021/12/30 05:35:33;;;;;;;0.60;0.40;;;13.30;99.90;;;13.12;77.69;97783.31;4987108;28;20057;-50
2021/12/30 05:38:02;;;;;;;1.10;0.60;;;13.20;99.90;;;13.13;77.82;97785.81;4987906;28;20056;-47
2021/12/30 05:40:32;;;;;;;1.00;0.60;;;13.30;99.90;;;13.14;77.73;97786.63;4987300;28;20042;-45
2021/12/30 05:43:01;;;;;;;0.47;0.40;;;13.20;99.90;;;13.12;77.74;97789.47;4987508;28;20389;-48
2021/12/30 05:45:29;;;;;;;0.75;0.40;;;13.20;99.90;;;13.14;77.81;97798.19;4986717;28;20057;-46
2021/12/30 05:47:57;;;;;;;0.40;0.40;;;13.20;99.90;;;13.13;77.64;97787.66;4986771;28;20367;-50
2021/12/30 05:50:31;;;;;;;0.30;0.30;;;13.30;99.90;;;13.15;77.61;97791.00;4988226;28;20362;-47
2021/12/30 05:52:59;;;;;;;;;;;13.30;99.90;;;13.11;77.76;97800.38;5020221;28;20072;-47
2021/12/30 05:55:28;;;;;;;0.20;0.20;;;13.20;99.90;;;13.11;77.66;97793.16;4987039;28;19957;-46
2021/12/30 05:57:57;;;;;;;0.60;0.60;;;13.20;99.90;;;13.14;77.64;97797.31;5002059;28;20058;-47
2021/12/30 06:00:29;;;;;;;0.32;0.30;;;13.30;99.90;;;13.12;77.69;97794.00;4987943;28;20042;-50
2021/12/30 06:02:58;;;;;;;0.20;0.20;;;13.30;99.90;;;13.13;77.70;97804.53;4987133;28;20054;-45
2021/12/30 06:05:27;;;;;;;0.82;0.30;;;13.30;99.90;;;13.13;77.82;97804.53;4987142;28;20068;-46
2021/12/30 06:07:55;;;;;;;0.30;0.30;;;13.30;99.90;;;13.09;77.79;97803.22;4986202;28;20050;-46
2021/12/30 06:10:23;;;;;;;0.40;0.30;;;13.30;99.90;;;13.12;77.81;97807.34;4987439;28;20062;-47
2021/12/30 06:12:51;;;;;;;1.25;0.52;;;13.30;99.90;;;13.15;77.69;97809.69;4986727;28;20054;-48
2021/12/30 06:15:19;;;;;;;0.38;0.38;;;13.30;99.90;;;13.12;77.84;97799.34;4987424;28;20050;-46
2021/12/30 06:17:47;;;;;;;2.35;0.50;;;13.30;99.90;;;13.12;77.65;97804.69;4986998;28;20374;-51
2021/12/30 06:20:15;;;;;;;0.50;0.30;;;13.30;99.90;;;13.12;78.01;97818.06;4987824;28;20062;-46
2021/12/30 06:22:44;;;;;;;0.50;0.50;;;13.30;99.90;;;13.10;77.98;97818.22;4986173;28;20248;-47
2021/12/30 06:25:12;;;;;;;1.95;0.50;;;13.30;99.90;;;13.09;78.20;97821.09;4986373;28;20061;-47
2021/12/30 06:27:41;;;;;;;0.60;0.50;;;13.30;99.90;;;13.09;78.12;97829.94;4986064;28;20065;-46
2021/12/30 06:30:10;;;;;;;0.95;0.77;;;13.30;99.90;;;13.12;78.13;97828.75;4987493;28;20049;-50
2021/12/30 06:32:38;;;;;;;1.17;0.90;;;13.30;99.90;;;13.09;78.27;97829.94;4986974;28;20058;-49
2021/12/30 06:35:10;;;;;;;2.25;1.23;;;13.30;99.90;;;13.12;77.96;97831.41;4986058;28;20060;-47
2021/12/30 06:37:39;;;;;;;0.60;0.60;;;13.30;99.90;;;13.14;78.02;97830.25;4986130;28;20061;-46
2021/12/30 06:40:11;;;;;;;0.90;0.50;;;13.30;99.90;;;13.15;77.95;97839.09;4987349;28;20046;-47
2021/12/30 06:42:41;;;;;;;1.27;0.40;;;13.30;99.90;;;13.15;77.84;97826.56;4986963;28;20053;-47
2021/12/30 06:45:11;;;;;;;0.88;0.60;;;13.30;99.90;;;13.14;78.14;97832.94;4987242;28;20053;-48
2021/12/30 06:47:45;;;;;;;0.43;0.40;;;13.30;99.90;;;13.12;78.14;97834.91;4987107;28;20053;-50
2021/12/30 06:50:15;;;;;;;1.63;0.40;;;13.30;99.90;;;13.11;78.18;97837.78;4987519;28;20060;-51
2021/12/30 06:52:47;;;;;;;1.17;0.65;;;13.30;99.90;;;13.12;77.99;97839.44;4986905;28;20069;-48
2021/12/30 06:55:15;;;;;;;1.15;0.57;;;13.30;99.90;;;13.12;78.16;97834.91;4986329;28;20054;-45
2021/12/30 06:57:44;;;;;;;0.98;0.70;;;13.30;99.90;;;13.15;77.96;97836.44;4986550;28;20050;-46
2021/12/30 07:00:13;;;;;;;0.63;0.52;;;13.30;99.90;;;13.12;78.25;97834.91;4988096;28;20422;-46
2021/12/30 07:02:44;;;;;;;1.52;0.90;;;13.30;99.90;;;13.14;78.19;97838.28;4986558;28;20298;-48
2021/12/30 07:05:13;;;;;;;0.50;0.47;;;13.30;99.90;;;13.16;78.23;97851.44;4985431;28;20076;-45
2021/12/30 07:07:43;;;;;;;0.95;0.75;;;13.30;99.90;;;13.16;78.35;97854.13;4985740;28;20054;-46
2021/12/30 07:10:11;;;;;;;1.60;1.17;;;13.30;99.90;;;13.14;78.17;97859.66;4985722;28;20049;-46
2021/12/30 07:12:39;;;;;;;1.02;0.70;;;13.30;99.90;;;13.14;78.19;97870.34;4986898;28;20063;-48
2021/12/30 07:15:08;;;;;;;1.00;0.73;;;13.30;99.90;;;13.10;78.31;97863.66;4985823;28;20057;-46
2021/12/30 07:17:36;;;;;;;0.88;0.52;;;13.30;99.90;;;13.14;78.36;97869.50;4985618;28;20049;-48
2021/12/30 07:20:05;;;;;;;2.15;0.63;;;13.30;99.90;;;13.16;78.32;97867.50;5006594;28;20539;-48
2021/12/30 07:22:33;;;;;;;0.60;0.60;;;13.30;99.90;;;13.13;78.36;97876.69;4989492;28;20055;-47
2021/12/30 07:25:16;;;;;;;0.40;0.40;;;13.30;99.90;;;13.13;78.52;97879.38;4989800;28;20336;-46
2021/12/30 07:27:52;;;;;;;0.75;0.50;;;13.30;99.90;;;13.13;78.35;97895.41;4989698;28;20349;-49
2021/12/30 07:30:23;;;;;;;0.55;0.40;;;13.30;99.90;;;13.15;78.31;97892.56;4991136;28;20466;-49
2021/12/30 07:32:52;;;;;;;1.27;0.82;;;13.30;99.90;;;13.18;78.99;97895.72;4989403;28;20054;-48
2021/12/30 07:35:25;;;;;;;0.40;0.40;;;13.40;99.90;;;13.14;78.57;97888.22;4989724;28;20068;-46
2021/12/30 07:37:53;;;;;;;1.65;0.30;;;13.30;99.90;;;13.13;78.60;97898.06;4987200;28;20272;-45
2021/12/30 07:40:21;;;;;;;0.73;0.52;;;13.30;99.90;;;13.12;78.74;97904.41;4989342;28;20060;-48
2021/12/30 07:42:49;;;;;;;0.65;0.38;;;13.30;99.90;;;13.10;78.95;97908.28;4988906;28;20065;-45
2021/12/30 07:45:17;;;;;;;0.82;0.82;;;13.30;99.90;;;13.09;78.99;97909.28;4990996;28;20383;-43
2021/12/30 07:47:50;;;;;;;1.33;1.08;;;13.30;99.90;;;13.07;79.32;97922.81;4988897;28;20066;-46
2021/12/30 07:50:20;;;;;;;0.82;0.75;;;13.30;99.90;;;13.07;79.40;97920.16;4988787;28;20042;-48
2021/12/30 07:52:48;;;;;;;1.00;0.80;;;13.30;99.90;;;13.09;79.32;97920.81;4989943;28;20058;-45
2021/12/30 07:55:17;;;;;;;0.88;0.80;;;13.30;99.90;;;13.11;79.05;97920.66;4988768;28;20062;-44
2021/12/30 07:57:45;;;;;;;0.88;0.57;;;13.30;99.90;;;13.12;79.21;97922.28;4988900;28;20056;-44
2021/12/30 08:00:16;;;;;;;1.33;0.80;;;13.30;99.90;;;13.09;79.28;97919.97;4991293;28;20054;-43
2021/12/30 08:02:45;;;;;;;0.70;0.60;;;13.40;99.90;;;13.11;79.20;97915.31;4989108;28;20042;-47
2021/12/30 08:05:17;;;;;;;1.83;0.90;;;13.30;99.90;;;13.11;79.59;97915.31;4989318;28;20050;-47
2021/12/30 08:07:46;;;;;;;1.27;0.60;;;13.30;99.90;;;13.11;79.29;97923.31;5003326;28;20051;-44
2021/12/30 08:10:18;;;;;;;0.90;0.50;;;13.30;99.90;;;13.10;79.79;97924.31;4987625;28;20244;-50
2021/12/30 08:12:48;;;;;;;1.23;0.50;;;13.40;99.90;;;13.11;79.62;97918.81;4988666;28;20062;-47
2021/12/30 08:15:17;;;;;;;0.77;0.40;;;13.30;99.90;;;13.10;79.49;97927.81;4989061;28;20053;-44
2021/12/30 08:17:47;;;;;;;0.93;0.60;;;13.30;99.90;;;13.12;79.57;97933.00;4988856;28;20050;-44
2021/12/30 08:20:18;;;;;;;1.05;0.80;;;13.30;99.90;;;13.12;79.58;97931.16;4989591;28;20065;-48
2021/12/30 08:22:46;;;;;;;0.88;0.70;;;13.30;99.90;;;13.14;79.37;97939.00;5001263;28;20368;-46
2021/12/30 08:25:14;;;;;;;0.55;0.50;;;13.30;99.90;;;13.13;79.54;97937.34;5009776;28;20048;-48
2021/12/30 08:27:43;;;;;;;1.00;0.70;;;13.30;99.90;;;13.10;79.61;97941.16;5006013;28;20056;-47
2021/12/30 08:30:16;;;;;;;0.73;0.60;;;13.40;99.90;;;13.10;79.59;97932.31;5008683;28;20069;-44
2021/12/30 08:32:46;;;;;;;1.55;1.17;;;13.30;99.90;;;13.11;79.57;97936.69;5007811;28;20069;-47
2021/12/30 08:35:16;;;;;;;0.45;0.40;;;13.40;99.90;;;13.12;79.50;97925.78;5007758;28;20523;-46
2021/12/30 08:37:44;;;;;;;1.88;1.27;;;13.30;99.90;;;13.11;79.25;97928.66;5008306;28;20058;-46
2021/12/30 08:40:15;;;;;;;0.93;0.80;;;13.30;99.90;;;13.10;79.38;97930.47;5007891;28;20049;-48
2021/12/30 08:42:44;;;;;;;0.60;0.60;;;13.30;99.90;;;13.10;79.28;97922.47;5006249;28;20348;-47
2021/12/30 08:45:13;;;;;;;1.42;0.65;;;13.40;99.90;;;13.13;79.33;97927.47;5007013;28;20058;-46
2021/12/30 08:47:43;;;;;;;2.05;0.98;;;13.40;99.90;;;13.14;79.21;97923.81;5006399;28;20244;-47
2021/12/30 08:50:13;;;;;;;2.30;1.40;;;13.40;99.90;;;13.17;79.30;97923.47;5010215;28;20076;-47
2021/12/30 08:52:44;;;;;;;3.75;2.40;;;13.40;99.90;;;13.21;79.25;97929.31;5006688;28;20046;-48
2021/12/30 08:55:14;;;;;;;2.78;1.52;;;13.40;99.90;;;13.20;79.06;97935.63;5007997;28;20046;-47
2021/12/30 08:57:43;;;;;;;1.30;1.20;;;13.40;99.90;;;13.24;79.07;97928.13;5040092;28;20061;-45
2021/12/30 09:00:18;;;;;;;1.15;0.70;;;13.50;99.90;;;13.28;79.08;97935.63;5011789;28;20045;-47
2021/12/30 09:02:46;;;;;;;0.98;0.70;;;13.50;99.90;;;13.32;79.02;97933.50;5013687;28;20068;-47
2021/12/30 09:05:14;;;;;;;0.50;0.50;;;13.60;99.90;;;13.33;79.01;97932.47;5017745;28;20048;-45
2021/12/30 09:07:43;;;;;;;0.55;0.50;;;13.60;99.90;;;13.30;78.98;97925.63;5014280;28;20328;-51
2021/12/30 09:10:15;;;;;;;0.50;0.50;;;13.60;99.90;;;13.31;78.92;97921.94;5010512;28;20050;-48
2021/12/30 09:12:45;;;;;;;0.73;0.65;;;13.60;99.90;;;13.38;78.84;97928.28;5011466;28;20050;-45
2021/12/30 09:15:22;;;;;;;0.70;0.50;;;13.60;99.90;;;13.43;78.86;97925.06;5012213;28;20061;-48
2021/12/30 09:17:52;;;;;;;1.77;0.60;;;13.70;99.90;;;13.48;78.85;97924.56;5010888;28;20065;-47
2021/12/30 09:20:21;;;;;;;1.58;1.38;;;13.70;99.90;;;13.51;78.78;97925.06;5022836;28;20057;-47
2021/12/30 09:22:50;;;;;;;0.52;0.50;;;13.80;99.90;;;13.57;78.66;97926.19;5017792;28;20374;-45
2021/12/30 09:25:22;;;;;;;1.00;0.55;;;13.80;99.90;;;13.61;78.65;97937.38;5006389;28;20054;-47
2021/12/30 09:27:53;;;;;;;0.77;0.70;;;13.80;99.90;;;13.67;78.80;97942.91;5006148;28;20046;-47
2021/12/30 09:30:22;;;;;;;1.13;1.00;;;13.90;99.90;;;13.69;78.66;97940.88;5006490;28;20049;-46
2021/12/30 09:32:54;;;;;;;0.77;0.70;;;13.90;99.90;;;13.72;78.45;97943.19;5007292;28;20057;-46
2021/12/30 09:35:22;;;;;;;0.65;0.60;;;14.00;99.90;;;13.77;78.43;97948.03;5004550;28;20280;-49
2021/12/30 09:37:51;;;;;;;0.93;0.50;;;14.00;99.90;;;13.81;78.45;97951.19;5006013;28;20064;-47
2021/12/30 09:40:20;;;;;;;0.50;0.50;;;14.00;99.90;;;13.81;78.28;97960.06;5008358;28;20064;-48
2021/12/30 09:42:54;;;;;;;0.60;0.60;;;14.00;99.90;;;13.83;78.40;97959.88;5005423;28;20054;-46
2021/12/30 09:45:27;;;;;;;2.22;0.47;;;14.00;99.90;;;13.86;78.40;97965.72;5007719;28;20344;-48
2021/12/30 09:47:58;;;;;;;0.55;0.50;;;14.10;99.90;;;13.90;78.16;97963.50;5005668;28;20042;-47
2021/12/30 09:50:33;;;;;;;0.30;0.30;;;14.10;99.90;;;13.92;78.10;97954.31;5007995;28;20049;-48
2021/12/30 09:53:01;;;;;;;0.43;0.43;;;14.10;99.90;;;13.93;78.08;97961.31;5006717;28;20064;-49
2021/12/30 09:55:31;;;;;;;1.33;0.40;;;14.10;99.90;;;13.93;78.11;97957.81;5005577;28;20369;-48
2021/12/30 09:58:00;;;;;;;0.30;0.30;;;14.10;99.90;;;13.97;78.02;97959.13;5007665;28;20061;-47
2021/12/30 10:00:29;;;;;;;0.63;0.60;;;14.20;99.90;;;14.03;77.92;97965.63;5007086;28;20072;-46
2021/12/30 10:02:58;;;;;;;0.20;0.20;;;14.30;99.90;;;14.02;77.77;97969.34;5005619;28;20309;-47
2021/12/30 10:05:32;;;;;;;0.32;0.30;;;14.20;99.90;;;14.05;77.65;97968.97;5007854;28;20052;-47
2021/12/30 10:08:18;;;;;;;0.20;0.20;;;14.30;99.90;;;14.05;77.50;97971.66;5007102;28;20484;-49
2021/12/30 10:10:54;;;;;;;1.13;0.30;;;14.30;99.90;;;13.95;76.88;97970.00;5007328;28;20054;-47
2021/12/30 10:13:31;;;;;;;0.20;0.20;;;14.30;99.90;;;13.96;77.19;97977.06;5006954;28;20457;-48
2021/12/30 10:16:12;;;;;;;0.30;0.30;;;14.20;99.90;;;13.99;77.13;97975.84;5007192;28;20050;-48
2021/12/30 10:18:51;;;;;;;0.17;0.17;;;14.30;99.90;;;13.94;77.16;97979.06;5006244;28;20042;-49
2021/12/30 10:21:34;;;;;;;2.05;0.20;;;14.30;99.90;;;13.93;76.61;97971.19;5006456;28;20057;-49
2021/12/30 10:24:07;;;;;;;0.43;0.20;;;14.30;99.90;;;13.99;76.85;97982.03;5006306;28;20625;-47
2021/12/30 10:26:56;;;;;;;0.20;0.20;;;14.30;99.90;;;14.05;77.03;97983.19;5006183;28;20058;-48
2021/12/30 10:29:28;;;;;;;0.10;0.10;;;14.40;99.90;;;13.97;76.61;97983.22;5006740;28;20289;-48
2021/12/30 10:31:55;;;;;;;0.15;0.15;;;14.40;99.90;;;13.97;76.49;97981.38;5005592;28;20042;-45